Time;durP1;ratioP1;P1;durP2;ratioP2;P2;SDS_P1;SDS_P2;PMS_P1;PMS_P2;Temp;Humidity;BMP_temperature;BMP_pressure;BME280_temperature;BME280_humidity;BME280_pressure;Samples;Min_cycle;Max_cycle;Signal;HPM_P1;HPM_P2
2023/02/07 00:01:07;;;;;;;15.40;10.55;;;;;;;-0.90;70.32;98529.72;5098034;28;20127;-84
2023/02/07 00:03:35;;;;;;;15.57;10.23;;;;;;;-0.96;69.28;98515.47;5098245;28;20058;-84
2023/02/07 00:06:09;;;;;;;18.20;12.40;;;;;;;-1.05;69.11;98520.94;5097749;28;20528;-82
2023/02/07 00:08:37;;;;;;;16.05;10.75;;;;;;;-1.10;69.43;98526.25;5097141;28;20055;-81
2023/02/07 00:11:06;;;;;;;17.77;11.95;;;;;;;-1.07;71.01;98522.75;5098250;28;20111;-82
2023/02/07 00:13:35;;;;;;;16.58;11.15;;;;;;;-1.05;70.37;98515.81;5097442;28;20514;-81
2023/02/07 00:16:03;;;;;;;20.63;11.60;;;;;;;-1.09;69.66;98504.06;5096838;28;20082;-80
2023/02/07 00:18:31;;;;;;;16.15;10.75;;;;;;;-1.08;69.83;98501.41;5096779;28;20509;-81
2023/02/07 00:20:59;;;;;;;17.35;11.27;;;;;;;-1.04;69.70;98509.81;5097939;28;20058;-82
2023/02/07 00:23:29;;;;;;;18.33;11.93;;;;;;;-1.05;68.85;98511.53;5097668;28;20136;-81
2023/02/07 00:25:57;;;;;;;14.52;10.77;;;;;;;-1.04;69.24;98509.81;5097587;28;20134;-82
2023/02/07 00:28:25;;;;;;;17.52;11.55;;;;;;;-1.02;69.40;98515.69;5096984;28;20465;-81
2023/02/07 00:31:03;;;;;;;17.50;12.02;;;;;;;-1.02;68.85;98531.06;5097558;28;20067;-80
2023/02/07 00:33:31;;;;;;;19.10;11.77;;;;;;;-1.02;68.86;98518.25;5097175;28;20046;-81
2023/02/07 00:35:59;;;;;;;16.83;10.77;;;;;;;-1.05;68.74;98503.84;5097218;28;20151;-80
2023/02/07 00:38:28;;;;;;;16.38;10.95;;;;;;;-1.06;69.22;98514.97;5096525;28;20132;-82
2023/02/07 00:40:56;;;;;;;19.73;11.43;;;;;;;-1.04;69.21;98526.00;5117388;22;20048;-78
2023/02/07 00:43:24;;;;;;;17.13;11.85;;;;;;;-1.07;68.31;98533.00;5093228;28;20576;-81
2023/02/07 00:45:56;;;;;;;;;;;;;;;-1.10;67.85;98527.97;5093572;28;20077;-79
2023/02/07 00:48:24;;;;;;;17.00;11.32;;;;;;;-1.14;68.42;98526.44;5092088;28;20018;-81
2023/02/07 00:50:51;;;;;;;15.40;10.38;;;;;;;-1.23;68.35;98527.63;5093766;28;20052;-78
2023/02/07 00:53:19;;;;;;;18.85;11.90;;;;;;;-1.29;68.16;98526.16;5092912;28;20052;-81
2023/02/07 00:55:47;;;;;;;18.42;12.25;;;;;;;-1.34;67.95;98525.50;5092691;28;20044;-79
2023/02/07 00:58:15;;;;;;;16.35;11.38;;;;;;;-1.41;68.63;98513.84;5092764;28;20072;-78
2023/02/07 01:00:43;;;;;;;19.90;12.52;;;;;;;-1.46;68.37;98518.31;5093538;28;20052;-78
2023/02/07 01:03:10;;;;;;;18.48;12.25;;;;;;;-1.49;69.55;98503.06;5093163;28;20138;-79
2023/02/07 01:05:39;;;;;;;19.08;11.65;;;;;;;-1.49;69.10;98492.81;5092836;28;20079;-76
2023/02/07 01:08:06;;;;;;;18.67;11.40;;;;;;;-1.51;68.89;98513.38;5092276;28;20098;-76
2023/02/07 01:10:34;;;;;;;16.05;11.82;;;;;;;-1.54;68.39;98520.31;5093234;28;20079;-76
2023/02/07 01:13:03;;;;;;;16.80;11.55;;;;;;;-1.55;68.85;98529.72;5092896;28;20048;-76
2023/02/07 01:15:31;;;;;;;17.27;11.80;;;;;;;-1.56;68.43;98524.66;5093204;28;20427;-77
2023/02/07 01:17:58;;;;;;;18.60;12.65;;;;;;;-1.56;68.37;98535.72;5092410;28;20052;-77
2023/02/07 01:20:28;;;;;;;17.23;12.07;;;;;;;-1.58;68.30;98549.47;5093654;28;20502;-78
2023/02/07 01:22:56;;;;;;;18.27;11.88;;;;;;;-1.59;68.14;98550.38;5093181;28;20044;-77
2023/02/07 01:25:23;;;;;;;20.30;13.10;;;;;;;-1.60;68.03;98553.81;5093637;28;20066;-77
2023/02/07 01:27:52;;;;;;;17.67;12.07;;;;;;;-1.59;68.29;98563.19;5094723;28;20059;-77
2023/02/07 01:30:21;;;;;;;18.65;11.55;;;;;;;-1.59;68.43;98576.81;5097486;28;20406;-77
2023/02/07 01:32:49;;;;;;;18.80;12.77;;;;;;;-1.56;68.72;98581.78;5097313;28;20056;-78
2023/02/07 01:35:17;;;;;;;16.73;11.27;;;;;;;-1.50;69.04;98580.75;5097364;28;20645;-77
2023/02/07 01:37:44;;;;;;;18.33;11.90;;;;;;;-1.48;68.29;98600.25;5096664;28;20048;-76
2023/02/07 01:40:12;;;;;;;21.45;12.90;;;;;;;-1.51;68.04;98594.41;5096758;28;20083;-77
2023/02/07 01:42:40;;;;;;;17.35;11.88;;;;;;;-1.58;68.04;98595.53;5096639;28;20126;-77
2023/02/07 01:45:22;;;;;;;19.67;12.95;;;;;;;-1.67;67.13;98579.63;5096440;28;20490;-77
2023/02/07 01:47:54;;;;;;;18.08;12.45;;;;;;;-1.72;67.73;98561.06;5096486;28;20549;-77
2023/02/07 01:50:22;;;;;;;20.98;13.18;;;;;;;-1.74;69.52;98557.72;5097371;28;20134;-77
2023/02/07 01:52:50;;;;;;;20.80;13.45;;;;;;;-1.73;68.72;98566.22;5097201;28;20083;-77
2023/02/07 01:55:22;;;;;;;19.80;12.50;;;;;;;-1.74;68.75;98577.38;5100168;28;20050;-78
2023/02/07 01:57:50;;;;;;;19.05;12.52;;;;;;;-1.69;69.11;98566.06;5103759;28;20048;-77
2023/02/07 02:00:18;;;;;;;19.38;13.10;;;;;;;-1.69;68.18;98549.88;5101965;28;20054;-77
2023/02/07 02:02:46;;;;;;;20.33;14.85;;;;;;;-1.71;69.98;98546.53;5099619;28;20581;-77
2023/02/07 02:05:15;;;;;;;19.65;14.18;;;;;;;-1.71;70.06;98541.41;5098898;28;20055;-77
2023/02/07 02:07:43;;;;;;;19.88;13.57;;;;;;;-1.71;70.80;98532.00;5098761;28;20055;-77
2023/02/07 02:10:14;;;;;;;18.92;13.10;;;;;;;-1.70;70.51;98531.13;5097819;28;20054;-76
2023/02/07 02:12:55;;;;;;;17.95;12.27;;;;;;;-1.72;68.94;98524.41;5097124;28;20115;-76
2023/02/07 02:15:33;;;;;;;18.65;11.68;;;;;;;-1.81;67.27;98525.59;5097193;28;20044;-76
2023/02/07 02:18:20;;;;;;;18.55;12.20;;;;;;;-1.92;67.06;98532.84;5095741;28;20070;-77
2023/02/07 02:21:19;;;;;;;18.90;12.25;;;;;;;-1.99;67.08;98531.38;5096247;28;20494;-79
2023/02/07 02:24:07;;;;;;;16.98;11.75;;;;;;;-1.99;67.27;98537.34;5096404;28;20052;-77
2023/02/07 02:26:46;;;;;;;16.30;12.15;;;;;;;-2.02;66.90;98532.31;5095857;28;20430;-78
2023/02/07 02:29:45;;;;;;;16.42;11.45;;;;;;;-2.07;66.54;98535.06;5095141;28;20421;-77
2023/02/07 02:32:53;;;;;;;18.80;11.27;;;;;;;-2.12;66.74;98525.88;5096138;28;20052;-76
2023/02/07 02:35:30;;;;;;;20.13;12.35;;;;;;;-2.15;67.36;98526.81;5095840;28;20044;-77
2023/02/07 02:38:03;;;;;;;17.75;12.32;;;;;;;-2.17;66.96;98532.88;5095616;28;20134;-77
2023/02/07 02:40:40;;;;;;;22.70;12.40;;;;;;;-2.25;66.75;98524.63;5095108;28;20417;-77
2023/02/07 02:43:13;;;;;;;20.48;13.15;;;;;;;-2.37;67.09;98531.03;5096213;28;20052;-77
2023/02/07 02:45:45;;;;;;;19.25;12.48;;;;;;;-2.46;66.63;98533.91;5096386;28;20059;-76
2023/02/07 02:48:15;;;;;;;20.05;13.43;;;;;;;-2.53;68.11;98535.84;5096378;28;20059;-75
2023/02/07 02:50:46;;;;;;;19.27;12.60;;;;;;;-2.56;67.63;98539.34;5097059;28;20134;-75
2023/02/07 02:53:14;;;;;;;21.40;13.52;;;;;;;-2.55;67.69;98543.56;5095662;28;20090;-77
2023/02/07 02:56:10;;;;;;;19.83;13.40;;;;;;;-2.54;66.99;98544.38;5095648;28;20044;-76
2023/02/07 02:58:51;;;;;;;19.50;12.90;;;;;;;-2.55;67.07;98545.28;5101075;28;20063;-77
2023/02/07 03:01:27;;;;;;;21.45;12.88;;;;;;;-2.53;67.43;98546.91;5101364;28;20573;-77
2023/02/07 03:04:13;;;;;;;19.80;13.60;;;;;;;-2.44;68.19;98550.84;5100633;28;20445;-77
2023/02/07 03:06:57;;;;;;;17.60;12.60;;;;;;;-2.46;67.19;98546.69;5099994;28;20095;-77
2023/02/07 03:09:35;;;;;;;21.98;14.48;;;;;;;-2.48;70.56;98544.19;5098458;28;20522;-78
2023/02/07 03:12:14;;;;;;;20.95;13.25;;;;;;;-2.46;69.23;98549.25;5099311;28;20139;-77
2023/02/07 03:14:52;;;;;;;20.83;13.57;;;;;;;-2.50;67.38;98546.78;5098225;28;20058;-77
2023/02/07 03:17:25;;;;;;;19.40;12.38;;;;;;;-2.61;67.14;98536.09;5104963;28;20055;-78
2023/02/07 03:20:03;;;;;;;17.75;12.40;;;;;;;-2.61;67.84;98537.81;5112721;28;20104;-78
2023/02/07 03:22:33;;;;;;;19.02;13.13;;;;;;;-2.55;68.74;98542.72;5112267;28;20056;-77
2023/02/07 03:25:03;;;;;;;17.73;12.40;;;;;;;-2.46;68.70;98542.41;5101682;28;20087;-77
2023/02/07 03:27:32;;;;;;;20.63;13.43;;;;;;;-2.43;67.77;98541.47;5099998;28;20094;-78
2023/02/07 03:30:05;;;;;;;22.13;13.00;;;;;;;-2.38;69.57;98550.66;5096639;28;20134;-76
2023/02/07 03:32:36;;;;;;;25.02;14.50;;;;;;;-2.26;70.66;98549.38;5096712;28;20123;-76
2023/02/07 03:35:11;;;;;;;18.35;11.68;;;;;;;-2.20;68.16;98549.16;5096260;28;20498;-77
2023/02/07 03:37:42;;;;;;;20.02;12.60;;;;;;;-2.19;70.01;98560.22;5095783;28;20140;-77
2023/02/07 03:40:11;;;;;;;18.73;12.50;;;;;;;-2.16;69.28;98555.03;5095053;28;20062;-77
2023/02/07 03:42:44;;;;;;;19.80;13.15;;;;;;;-2.12;68.33;98549.75;5092827;28;20433;-78
2023/02/07 03:45:15;;;;;;;20.38;13.38;;;;;;;-2.10;70.66;98554.78;5093087;28;20044;-77
2023/02/07 03:47:43;;;;;;;21.40;12.52;;;;;;;-2.03;71.38;98543.47;5092881;28;20509;-77
2023/02/07 03:50:13;;;;;;;18.83;12.38;;;;;;;-1.96;70.54;98551.75;5092620;28;20147;-77
2023/02/07 03:52:41;;;;;;;17.88;11.32;;;;;;;-1.94;69.79;98555.06;5093365;28;20052;-76
2023/02/07 03:55:09;;;;;;;14.10;10.10;;;;;;;-1.96;69.04;98544.91;5094510;28;20417;-77
2023/02/07 03:57:36;;;;;;;17.45;10.85;;;;;;;-2.07;68.54;98540.16;5094303;28;20048;-77
2023/02/07 04:00:05;;;;;;;16.15;10.73;;;;;;;-2.17;67.30;98528.59;5093516;28;20044;-76
2023/02/07 04:02:33;;;;;;;17.02;10.90;;;;;;;-2.19;69.68;98515.03;5094561;28;20123;-76
2023/02/07 04:05:01;;;;;;;19.58;11.55;;;;;;;-2.12;70.63;98511.38;5094408;28;20511;-76
2023/02/07 04:07:30;;;;;;;18.98;11.50;;;;;;;-2.08;70.55;98497.59;5093832;28;20066;-76
2023/02/07 04:09:57;;;;;;;16.23;10.95;;;;;;;-2.08;69.58;98509.53;5093248;28;20514;-77
2023/02/07 04:12:31;;;;;;;13.73;9.77;;;;;;;-2.08;69.27;98512.94;5093749;28;20070;-76
2023/02/07 04:14:59;;;;;;;16.45;11.77;;;;;;;-2.01;70.90;98522.91;5094700;28;20048;-77
2023/02/07 04:17:26;;;;;;;15.73;10.93;;;;;;;-1.97;69.56;98522.78;5094144;28;20082;-77
2023/02/07 04:19:57;;;;;;;16.33;11.00;;;;;;;-2.02;69.42;98513.59;5093024;28;20052;-77
2023/02/07 04:22:25;;;;;;;16.48;10.48;;;;;;;-2.05;70.10;98522.22;5093398;28;20047;-77
2023/02/07 04:24:53;;;;;;;15.52;9.95;;;;;;;-2.08;69.14;98525.72;5093616;28;20044;-76
2023/02/07 04:27:21;;;;;;;17.30;11.38;;;;;;;-2.09;68.38;98525.78;5093422;28;20489;-76
2023/02/07 04:29:49;;;;;;;18.08;12.07;;;;;;;-2.12;69.76;98524.16;5093037;28;20425;-77
2023/02/07 04:32:17;;;;;;;13.95;9.98;;;;;;;-2.15;68.57;98511.47;5093053;28;20429;-77
2023/02/07 04:34:44;;;;;;;15.88;9.57;;;;;;;-2.21;67.84;98510.88;5093191;28;20516;-76
2023/02/07 04:37:12;;;;;;;14.75;10.18;;;;;;;-2.25;68.90;98510.16;5093104;28;20040;-76
2023/02/07 04:39:39;;;;;;;16.38;10.88;;;;;;;-2.24;69.55;98504.16;5093469;28;20052;-76
2023/02/07 04:42:08;;;;;;;14.50;10.27;;;;;;;-2.26;68.92;98503.38;5093217;28;20058;-77
2023/02/07 04:44:36;;;;;;;16.92;11.18;;;;;;;-2.25;69.95;98487.16;5093290;28;20058;-77
2023/02/07 04:47:03;;;;;;;15.38;10.23;;;;;;;-2.24;69.38;98481.13;5101337;28;20056;-78
2023/02/07 04:49:31;;;;;;;15.43;10.38;;;;;;;-2.19;70.23;98488.63;5105721;28;20130;-76
2023/02/07 04:52:01;;;;;;;17.85;11.85;;;;;;;-2.15;71.51;98480.78;5102244;28;20135;-78
2023/02/07 04:54:28;;;;;;;16.08;9.50;;;;;;;-2.07;70.56;98495.88;5097416;28;20056;-77
2023/02/07 04:56:56;;;;;;;14.23;8.38;;;;;;;-2.22;66.96;98484.47;5096854;28;20046;-78
2023/02/07 04:59:25;;;;;;;13.38;8.50;;;;;;;-2.31;66.56;98495.03;5096010;28;20055;-76
2023/02/07 05:01:52;;;;;;;14.90;10.75;;;;;;;-2.28;68.46;98500.84;5095393;28;20048;-76
2023/02/07 05:04:20;;;;;;;13.85;9.98;;;;;;;-2.24;69.05;98509.25;5095602;28;20048;-77
2023/02/07 05:06:48;;;;;;;15.48;9.00;;;;;;;-2.26;67.70;98505.91;5095183;28;20062;-77
2023/02/07 05:09:15;;;;;;;13.82;10.05;;;;;;;-2.26;67.35;98507.66;5093572;28;20144;-76
2023/02/07 05:11:43;;;;;;;17.40;10.68;;;;;;;-2.28;68.35;98510.25;5094531;28;20513;-75
2023/02/07 05:14:11;;;;;;;14.95;11.18;;;;;;;-2.25;68.42;98505.03;5094468;28;20054;-76
2023/02/07 05:16:40;;;;;;;13.30;10.27;;;;;;;-2.20;70.21;98521.03;5094302;28;20044;-77
2023/02/07 05:19:07;;;;;;;15.35;9.65;;;;;;;-2.19;69.04;98529.53;5093738;28;20048;-76
2023/02/07 05:21:35;;;;;;;13.40;10.02;;;;;;;-2.17;69.94;98541.38;5094112;28;20052;-75
2023/02/07 05:24:03;;;;;;;16.20;10.70;;;;;;;-2.14;70.44;98531.06;5094803;28;20059;-76
2023/02/07 05:26:30;;;;;;;16.20;11.68;;;;;;;-2.07;71.68;98539.34;5093073;28;20391;-76
2023/02/07 05:28:58;;;;;;;18.65;12.07;;;;;;;-2.04;71.86;98534.09;5092482;28;20040;-76
2023/02/07 05:33:02;;;;;;;12.77;9.38;;;;;;;-2.01;69.32;98525.47;5093252;28;20052;-76
2023/02/07 05:34:14;;;;;;;14.85;9.60;;;;;;;-2.07;67.53;98518.88;5095283;28;20054;-76
2023/02/07 05:36:41;;;;;;;14.68;10.07;;;;;;;-2.11;67.40;98520.72;5095369;28;20120;-76
2023/02/07 05:39:09;;;;;;;14.48;10.80;;;;;;;-2.13;67.64;98513.97;5094971;28;20050;-76
2023/02/07 05:41:36;;;;;;;13.85;9.65;;;;;;;-2.08;68.09;98519.75;5094353;28;20514;-76
2023/02/07 05:44:05;;;;;;;16.70;10.05;;;;;;;-2.08;67.23;98507.81;5098146;28;20493;-76
2023/02/07 05:46:33;;;;;;;17.38;11.20;;;;;;;-2.09;66.53;98513.81;5089683;28;20056;-77
2023/02/07 05:49:00;;;;;;;18.85;9.98;;;;;;;-2.13;65.88;98509.69;5094066;28;20066;-77
2023/02/07 05:51:30;;;;;;;21.70;12.85;;;;;;;-2.14;69.24;98512.34;5106298;28;20047;-76
2023/02/07 05:53:57;;;;;;;19.77;11.52;;;;;;;-2.12;69.74;98516.50;5116792;28;20054;-78
2023/02/07 05:56:25;;;;;;;16.88;11.55;;;;;;;-2.13;69.89;98512.25;5099414;28;20078;-80
2023/02/07 05:58:53;;;;;;;17.80;10.43;;;;;;;-2.18;68.13;98501.38;5094391;28;20052;-76
2023/02/07 06:01:20;;;;;;;16.92;10.75;;;;;;;-2.25;67.20;98493.97;5103073;28;20530;-78
2023/02/07 06:03:48;;;;;;;19.60;12.20;;;;;;;-2.29;67.63;98499.19;5094831;28;20048;-77
2023/02/07 06:06:16;;;;;;;16.27;10.75;;;;;;;-2.34;67.10;98498.53;5109077;28;20055;-78
2023/02/07 06:08:45;;;;;;;18.33;12.55;;;;;;;-2.37;69.95;98511.41;5094895;28;20501;-78
2023/02/07 06:11:12;;;;;;;16.48;10.60;;;;;;;-2.36;68.96;98513.09;5103255;28;20058;-79
2023/02/07 06:13:40;;;;;;;14.48;10.90;;;;;;;-2.42;67.22;98513.31;5115976;28;20044;-77
2023/02/07 06:16:09;;;;;;;15.35;10.85;;;;;;;-2.45;67.33;98522.78;5109849;28;20549;-78
2023/02/07 06:18:37;;;;;;;13.30;10.63;;;;;;;-2.50;67.26;98525.50;5098675;28;20047;-77
2023/02/07 06:21:05;;;;;;;18.85;12.10;;;;;;;-2.55;67.70;98522.28;5097696;28;20044;-77
2023/02/07 06:23:32;;;;;;;22.27;13.80;;;;;;;-2.56;69.91;98530.81;5098544;28;20052;-77
2023/02/07 06:26:01;;;;;;;21.08;12.95;;;;;;;-2.49;71.45;98528.03;5095788;28;20052;-77
2023/02/07 06:28:29;;;;;;;19.98;11.75;;;;;;;-2.46;70.25;98523.69;5096474;28;20044;-81
2023/02/07 06:30:56;;;;;;;16.40;11.18;;;;;;;-2.43;70.18;98533.78;5098625;28;20245;-81
2023/02/07 06:33:24;;;;;;;19.42;12.63;;;;;;;-2.39;71.28;98532.81;5096689;28;20074;-79
2023/02/07 06:35:54;;;;;;;17.25;11.63;;;;;;;-2.31;71.16;98530.81;5105431;28;20112;-85
2023/02/07 06:38:22;;;;;;;18.50;11.63;;;;;;;-2.32;69.54;98526.59;5098003;28;20045;-81
2023/02/07 06:40:50;;;;;;;19.08;12.25;;;;;;;-2.35;70.96;98524.16;5094311;28;20056;-82
2023/02/07 06:43:18;;;;;;;18.52;12.05;;;;;;;-2.33;72.73;98517.25;5099475;22;20392;-76
2023/02/07 06:45:46;;;;;;;20.23;12.18;;;;;;;-2.28;71.82;98530.69;5073763;28;20044;-76
2023/02/07 06:48:14;;;;;;;16.65;11.05;;;;;;;-2.34;69.27;98525.81;5073227;28;20501;-76
2023/02/07 06:50:41;;;;;;;21.13;12.15;;;;;;;-2.38;69.14;98542.16;5073620;28;20048;-76
2023/02/07 06:53:09;;;;;;;17.48;11.68;;;;;;;-2.37;70.56;98551.47;5074275;28;20123;-76
2023/02/07 06:55:39;;;;;;;19.20;10.65;;;;;;;-2.39;69.51;98548.13;5075181;28;20048;-75
2023/02/07 06:58:07;;;;;;;14.68;10.25;;;;;;;-2.44;67.75;98555.16;5074713;28;20076;-76
2023/02/07 07:00:36;;;;;;;16.10;10.45;;;;;;;-2.57;66.41;98549.63;5075548;28;20421;-76
2023/02/07 07:03:04;;;;;;;16.33;10.95;;;;;;;-2.66;66.44;98560.97;5075346;28;20053;-75
2023/02/07 07:05:32;;;;;;;17.05;11.85;;;;;;;-2.69;68.75;98563.59;5075540;28;20056;-76
2023/02/07 07:08:00;;;;;;;21.50;11.52;;;;;;;-2.68;68.84;98562.75;5074666;28;20045;-76
2023/02/07 07:10:28;;;;;;;17.50;10.82;;;;;;;-2.71;68.57;98557.75;5075028;28;20082;-76
2023/02/07 07:12:55;;;;;;;17.83;11.32;;;;;;;-2.64;69.99;98561.75;5075265;28;20138;-76
2023/02/07 07:15:23;;;;;;;18.30;12.32;;;;;;;-2.55;71.63;98556.34;5075224;28;20044;-76
2023/02/07 07:17:52;;;;;;;18.98;12.18;;;;;;;-2.45;73.12;98553.47;5074528;28;20248;-76
2023/02/07 07:20:19;;;;;;;19.50;12.88;;;;;;;-2.35;73.41;98555.66;5077007;28;20049;-76
2023/02/07 07:22:48;;;;;;;18.77;12.55;;;;;;;-2.22;74.05;98555.22;5075731;28;20049;-76
2023/02/07 07:25:15;;;;;;;19.15;12.13;;;;;;;-2.10;73.36;98544.53;5075596;28;20040;-76
2023/02/07 07:27:43;;;;;;;20.65;12.07;;;;;;;-2.04;71.62;98543.50;5074978;28;20102;-75
2023/02/07 07:30:12;;;;;;;17.23;12.23;;;;;;;-2.00;71.64;98550.19;5074797;28;20407;-76
2023/02/07 07:32:39;;;;;;;21.27;13.00;;;;;;;-1.95;72.58;98555.94;5074764;28;20048;-76
2023/02/07 07:35:09;;;;;;;20.70;12.65;;;;;;;-1.86;72.83;98547.94;5074489;28;20048;-75
2023/02/07 07:37:37;;;;;;;16.05;11.63;;;;;;;-1.87;71.22;98551.41;5074442;28;20050;-76
2023/02/07 07:40:05;;;;;;;17.17;11.30;;;;;;;-1.89;70.01;98548.06;5073821;28;20421;-76
2023/02/07 07:42:34;;;;;;;16.38;10.82;;;;;;;-1.88;69.15;98544.59;5074390;28;20490;-76
2023/02/07 07:45:01;;;;;;;19.15;11.55;;;;;;;-1.78;69.21;98551.06;5074683;28;20074;-75
2023/02/07 07:47:29;;;;;;;20.52;12.32;;;;;;;-1.63;70.38;98548.81;5074591;28;20582;-76
2023/02/07 07:49:57;;;;;;;17.17;11.98;;;;;;;-1.60;69.75;98562.31;5092957;28;20039;-75
2023/02/07 07:52:25;;;;;;;17.52;12.02;;;;;;;-1.61;68.28;98565.78;5094343;28;20107;-75
2023/02/07 07:54:53;;;;;;;16.98;10.57;;;;;;;-1.64;67.93;98562.50;5094671;28;20078;-75
2023/02/07 07:57:21;;;;;;;19.95;12.35;;;;;;;-1.59;70.56;98565.75;5095347;28;20049;-75
2023/02/07 07:59:48;;;;;;;15.80;10.68;;;;;;;-1.58;69.20;98577.63;5077689;28;20128;-76
2023/02/07 08:02:16;;;;;;;15.30;10.63;;;;;;;-1.69;67.19;98575.47;5074316;28;20515;-75
2023/02/07 08:04:43;;;;;;;17.73;11.55;;;;;;;-1.73;67.38;98587.56;5074667;28;20052;-76
2023/02/07 08:07:11;;;;;;;16.85;11.10;;;;;;;-1.77;66.19;98588.56;5074218;28;20131;-76
2023/02/07 08:09:40;;;;;;;15.68;10.60;;;;;;;-1.88;64.92;98600.88;5073747;28;20044;-76
2023/02/07 08:12:07;;;;;;;18.85;12.00;;;;;;;-1.98;64.69;98604.66;5073795;28;20044;-76
2023/02/07 08:14:35;;;;;;;15.07;9.95;;;;;;;-2.08;64.26;98606.69;5074061;28;20062;-76
2023/02/07 08:17:03;;;;;;;15.80;10.52;;;;;;;-2.17;64.28;98610.41;5073855;28;20074;-76
2023/02/07 08:19:30;;;;;;;18.45;11.43;;;;;;;-2.17;64.70;98610.41;5072842;28;20072;-76
2023/02/07 08:21:58;;;;;;;15.77;10.82;;;;;;;-2.09;64.93;98613.53;5073622;28;20054;-76
2023/02/07 08:24:27;;;;;;;16.65;11.73;;;;;;;-2.02;65.62;98618.44;5073832;28;20062;-76
2023/02/07 08:26:56;;;;;;;15.98;11.20;;;;;;;-1.93;64.90;98618.13;5074016;28;20045;-76
2023/02/07 08:29:23;;;;;;;15.70;10.23;;;;;;;-1.89;64.57;98610.28;5072677;28;20076;-76
2023/02/07 08:31:51;;;;;;;15.15;10.32;;;;;;;-1.80;64.53;98603.16;5073732;28;20044;-76
2023/02/07 08:34:22;;;;;;;20.33;11.40;;;;;;;-1.67;64.83;98604.41;5073803;28;20049;-75
2023/02/07 08:36:50;;;;;;;12.90;8.98;;;;;;;-1.53;64.44;98607.28;5073159;28;20090;-76
2023/02/07 08:39:18;;;;;;;15.68;10.07;;;;;;;-1.38;64.75;98608.41;5073186;28;20052;-76
2023/02/07 08:41:45;;;;;;;14.13;10.00;;;;;;;-1.21;65.20;98596.72;5073711;28;20048;-76
2023/02/07 08:44:14;;;;;;;17.48;11.35;;;;;;;-1.07;64.67;98604.72;5073908;28;20080;-76
2023/02/07 08:46:42;;;;;;;16.63;10.93;;;;;;;-0.95;64.53;98600.81;5073973;28;20116;-76
2023/02/07 08:49:10;;;;;;;13.63;9.57;;;;;;;-0.87;63.32;98597.06;5072967;28;20490;-75
2023/02/07 08:51:37;;;;;;;15.55;10.10;;;;;;;-0.86;62.44;98593.59;5073645;28;20048;-75
2023/02/07 08:54:05;;;;;;;16.33;11.13;;;;;;;-0.73;62.52;98588.81;5073452;28;20052;-76
2023/02/07 08:56:33;;;;;;;14.18;9.57;;;;;;;-0.62;62.07;98586.63;5073713;28;20066;-76
2023/02/07 08:59:01;;;;;;;12.07;8.90;;;;;;;-0.55;60.62;98576.97;5072588;28;20076;-75
2023/02/07 09:01:30;;;;;;;15.77;10.57;;;;;;;-0.47;61.09;98590.31;5074067;28;20059;-76
2023/02/07 09:03:58;;;;;;;15.50;9.40;;;;;;;-0.31;60.70;98585.34;5091057;28;20055;-76
2023/02/07 09:06:26;;;;;;;14.57;9.98;;;;;;;-0.16;60.12;98578.75;5091591;28;20071;-74
2023/02/07 09:08:54;;;;;;;16.02;9.02;;;;;;;0.04;60.55;98575.31;5091164;28;20097;-76
2023/02/07 09:11:22;;;;;;;13.93;8.60;;;;;;;0.28;59.48;98568.25;5090967;28;20062;-75
2023/02/07 09:13:50;;;;;;;13.18;9.18;;;;;;;0.52;59.96;98576.56;5090229;28;20048;-75
2023/02/07 09:16:17;;;;;;;12.82;8.75;;;;;;;0.71;58.80;98566.28;5079931;28;20052;-76
2023/02/07 09:18:46;;;;;;;15.65;10.63;;;;;;;0.91;61.23;98572.25;5073943;28;20068;-76
2023/02/07 09:21:14;;;;;;;13.70;9.40;;;;;;;1.13;58.76;98580.56;5075210;28;20581;-76
2023/02/07 09:23:42;;;;;;;14.45;10.10;;;;;;;1.33;59.93;98579.59;5074229;28;20056;-76
2023/02/07 09:26:16;;;;;;;13.02;8.68;;;;;;;1.55;56.66;98579.41;5073916;28;20048;-76
2023/02/07 09:28:44;;;;;;;13.93;9.88;;;;;;;1.78;58.26;98583.38;5072921;28;20053;-75
2023/02/07 09:31:13;;;;;;;14.65;8.40;;;;;;;1.98;57.11;98581.53;5073343;28;20512;-76
2023/02/07 09:33:42;;;;;;;11.48;8.45;;;;;;;2.18;58.45;98581.31;5073349;28;20056;-76
2023/02/07 09:36:18;;;;;;;10.25;8.20;;;;;;;2.36;54.51;98571.81;5073369;28;20047;-76
2023/02/07 09:38:47;;;;;;;11.18;7.97;;;;;;;2.51;55.84;98574.47;5072921;28;20056;-76
2023/02/07 09:41:21;;;;;;;12.85;8.15;;;;;;;2.67;54.67;98570.16;5073055;28;20049;-76
2023/02/07 09:43:59;;;;;;;12.48;8.50;;;;;;;2.88;54.35;98583.59;5073217;28;20052;-76
2023/02/07 09:46:32;;;;;;;11.30;8.13;;;;;;;3.00;56.71;98582.09;5073197;28;20056;-76
2023/02/07 09:49:05;;;;;;;13.43;9.32;;;;;;;3.13;53.88;98588.22;5074588;28;20083;-76
2023/02/07 09:51:35;;;;;;;10.70;8.52;;;;;;;3.29;56.26;98583.03;5076536;28;20048;-76
2023/02/07 09:54:06;;;;;;;11.32;8.90;;;;;;;3.42;54.86;98581.41;5076817;28;20086;-76
2023/02/07 09:56:35;;;;;;;11.45;8.88;;;;;;;3.61;54.51;98577.78;5076348;28;20189;-76
2023/02/07 09:59:15;;;;;;;14.82;9.52;;;;;;;3.69;52.81;98581.53;5075612;28;20088;-76
2023/02/07 10:01:48;;;;;;;11.73;8.73;;;;;;;3.85;51.45;98588.41;5076115;28;20055;-76
2023/02/07 10:04:29;;;;;;;13.27;9.23;;;;;;;3.97;50.29;98587.66;5076084;28;20048;-76
2023/02/07 10:06:59;;;;;;;10.05;7.38;;;;;;;4.09;49.55;98593.88;5076325;28;20251;-76
2023/02/07 10:09:29;;;;;;;10.80;8.25;;;;;;;4.10;49.88;98598.94;5075310;28;20052;-76
2023/02/07 10:12:05;;;;;;;10.27;6.78;;;;;;;4.18;47.72;98588.16;5075864;28;20041;-76
2023/02/07 10:15:00;;;;;;;10.30;8.20;;;;;;;4.23;52.76;98587.88;5075869;28;20051;-77
2023/02/07 10:17:43;;;;;;;11.38;7.78;;;;;;;4.38;52.19;98588.69;5075432;28;20131;-76
2023/02/07 10:20:26;;;;;;;8.07;6.68;;;;;;;4.48;47.18;98595.78;5075229;28;20045;-76
2023/02/07 10:23:06;;;;;;;9.10;7.45;;;;;;;4.58;46.71;98600.38;5075758;28;20059;-76
2023/02/07 10:25:44;;;;;;;10.25;7.55;;;;;;;4.69;45.38;98603.13;5075529;28;20075;-76
2023/02/07 10:28:53;;;;;;;12.07;6.82;;;;;;;4.76;44.61;98599.22;5074679;28;20053;-76
2023/02/07 10:31:24;;;;;;;12.27;7.20;;;;;;;4.84;46.29;98591.00;5075641;28;20048;-76
2023/02/07 10:33:58;;;;;;;14.75;9.77;;;;;;;4.92;44.79;98594.78;5075505;28;20504;-77
2023/02/07 10:36:28;;;;;;;13.73;8.90;;;;;;;4.94;45.82;98592.06;5075297;28;20395;-77
2023/02/07 10:39:05;;;;;;;11.50;6.88;;;;;;;5.02;44.51;98591.59;5074346;28;20048;-76
2023/02/07 10:41:38;;;;;;;11.85;7.72;;;;;;;5.08;45.72;98592.03;5074980;28;20045;-76
2023/02/07 10:44:09;;;;;;;9.70;6.65;;;;;;;5.16;44.81;98602.72;5075483;28;20059;-77
2023/02/07 10:46:38;;;;;;;8.48;7.18;;;;;;;5.17;44.54;98595.78;5076484;28;20049;-77
2023/02/07 10:49:06;;;;;;;10.23;7.57;;;;;;;5.22;45.04;98593.72;5074726;28;20044;-76
2023/02/07 10:51:35;;;;;;;10.38;7.32;;;;;;;5.28;44.11;98595.91;5075717;28;20506;-76
2023/02/07 10:54:09;;;;;;;7.60;6.25;;;;;;;5.36;42.94;98604.03;5075126;28;20135;-77
2023/02/07 10:56:41;;;;;;;8.10;6.30;;;;;;;5.39;42.82;98607.34;5074596;28;20052;-76
2023/02/07 10:59:31;;;;;;;9.88;7.50;;;;;;;5.45;42.25;98610.34;5074278;28;20514;-76
2023/02/07 11:02:00;;;;;;;9.60;6.95;;;;;;;5.48;43.42;98606.72;5074464;28;20052;-76
2023/02/07 11:04:35;;;;;;;9.00;6.40;;;;;;;5.48;41.70;98604.97;5074736;28;20135;-76
2023/02/07 11:07:05;;;;;;;7.55;6.20;;;;;;;5.46;43.57;98606.00;5074968;28;20413;-76
2023/02/07 11:09:36;;;;;;;9.93;7.25;;;;;;;5.59;44.25;98604.28;5074164;28;20512;-77
2023/02/07 11:12:15;;;;;;;8.40;6.82;;;;;;;5.81;41.38;98605.44;5074225;28;20095;-77
2023/02/07 11:15:00;;;;;;;10.82;6.35;;;;;;;5.88;40.93;98598.91;5074643;28;20056;-76
2023/02/07 11:17:29;;;;;;;9.55;6.60;;;;;;;5.96;42.63;98610.44;5074610;28;20127;-77
2023/02/07 11:20:02;;;;;;;8.02;7.20;;;;;;;5.93;42.06;98607.22;5073539;28;20101;-77
2023/02/07 11:22:29;;;;;;;9.77;7.28;;;;;;;5.91;41.93;98609.09;5074232;28;20079;-76
2023/02/07 11:25:03;;;;;;;10.23;7.03;;;;;;;5.88;41.11;98611.84;5074047;28;20052;-76
2023/02/07 11:27:37;;;;;;;9.45;7.00;;;;;;;5.92;40.93;98615.91;5074048;28;20055;-77
2023/02/07 11:30:09;;;;;;;8.93;7.15;;;;;;;5.88;41.21;98607.53;5073757;28;20052;-77
2023/02/07 11:32:38;;;;;;;8.98;6.70;;;;;;;5.92;41.95;98598.59;5074193;28;20079;-77
2023/02/07 11:35:08;;;;;;;8.18;6.18;;;;;;;6.13;41.75;98598.94;5074353;28;20070;-76
2023/02/07 11:37:37;;;;;;;10.82;6.70;;;;;;;6.26;41.23;98598.94;5074257;28;20044;-77